Terminal Aerodrome Forecast
Issued by NWS

Home | Current Version | Previous Version | Text Only | Print | Product List | Glossary Off
Versions: 1 2 3 4 5 6 7 8 9 10 11 12 13 14 15 16

000
FTUS43 KIWX 131100
TAFSBN
TAF
KSBN 131136Z 1312/1412 21014G21KT P6SM SCT060 BKN250
     FM132100 18017G25KT P6SM VCTS BKN040CB
     FM140200 17018G26KT 5SM SHRA VCTS OVC025CB
     FM141100 27016G24KT 3SM -SHRA OVC008=

USA.gov is the U.S. government's official web portal to all federal, state and local government web resources and services.